createdAt,value
2022-10-28T01:37:43.420Z,101480.60
2022-10-28T01:41:38.918Z,101484.20
2022-10-28T01:45:21.110Z,101480.40
2022-10-28T01:48:51.365Z,101477.60
2022-10-28T01:52:49.497Z,101469.20
2022-10-28T01:56:27.599Z,101473.20
2022-10-28T01:59:58.340Z,101478.80
2022-10-28T02:03:18.345Z,101487.20
2022-10-28T02:07:06.376Z,101476.80
2022-10-28T02:10:46.459Z,101474.60
2022-10-28T02:40:39.320Z,101444.40
2022-10-28T02:46:47.269Z,101418.80
2022-10-28T02:50:37.568Z,101414.80
2022-10-28T02:57:19.793Z,101414.60
2022-10-28T03:00:29.078Z,101414.00
2022-10-28T03:03:41.178Z,101412.60
2022-10-28T03:10:05.087Z,101414.20
2022-10-28T03:13:06.373Z,101425.40
2022-10-28T03:17:30.588Z,101424.20
2022-10-28T03:20:14.289Z,101413.80
2022-10-28T03:23:12.364Z,101425.00
2022-10-28T03:26:23.354Z,101418.60
2022-10-28T03:29:45.698Z,101419.60
2022-10-28T03:32:45.766Z,101411.80
2022-10-28T03:35:28.159Z,101408.40
2022-10-28T03:38:08.878Z,101402.20
2022-10-28T03:40:55.438Z,101411.40
2022-10-28T03:43:54.688Z,101411.40
2022-10-28T03:50:27.221Z,101400.00
2022-10-28T03:53:40.025Z,101396.00
2022-10-28T03:56:42.508Z,101395.80
2022-10-28T03:59:24.986Z,101401.20
2022-10-28T04:02:04.424Z,101394.80
2022-10-28T04:04:45.247Z,101392.20
2022-10-28T04:07:26.963Z,101388.80
2022-10-28T04:10:01.964Z,101397.40
2022-10-28T04:12:44.580Z,101401.00
2022-10-28T04:15:24.759Z,101406.80
2022-10-28T04:18:07.153Z,101405.60
2022-10-28T04:21:33.595Z,101400.80
2022-10-28T04:24:27.058Z,101404.40
2022-10-28T04:27:30.468Z,101402.20
2022-10-28T04:33:10.452Z,101390.60
2022-10-28T04:35:47.508Z,101387.60
2022-10-28T04:38:20.680Z,101386.40
2022-10-28T04:40:51.771Z,101391.60
2022-10-28T04:43:22.571Z,101385.40
2022-10-28T04:45:53.497Z,101388.00
2022-10-28T04:48:31.646Z,101385.60
2022-10-28T04:51:03.698Z,101387.40
2022-10-28T04:53:41.244Z,101385.00
2022-10-28T04:56:15.549Z,101374.80
2022-10-28T04:59:18.181Z,101368.80
2022-10-28T05:01:53.780Z,101360.20
2022-10-28T05:04:25.262Z,101362.80
2022-10-28T05:06:55.914Z,101363.80
2022-10-28T05:09:27.893Z,101367.40
2022-10-28T05:11:58.760Z,101369.60
2022-10-28T05:14:29.714Z,101366.60
2022-10-28T05:17:00.536Z,101365.00
2022-10-28T05:19:36.468Z,101358.40
2022-10-28T05:22:44.758Z,101361.40
2022-10-28T05:25:25.673Z,101356.80
2022-10-28T05:28:00.511Z,101355.00
2022-10-28T05:30:34.310Z,101356.00
2022-10-28T05:33:06.891Z,101343.80
2022-10-28T05:35:39.225Z,101343.00
2022-10-28T05:38:09.794Z,101348.80
2022-10-28T05:40:40.281Z,101342.20
2022-10-28T05:43:12.063Z,101354.80
2022-10-28T05:45:48.126Z,101344.80
2022-10-28T05:48:22.120Z,101348.20
2022-10-28T05:50:58.563Z,101337.00
2022-10-28T05:53:29.036Z,101340.80
2022-10-28T05:57:05.148Z,101339.20
2022-10-28T06:00:19.426Z,101338.60
2022-10-28T06:07:48.522Z,101338.00
2022-10-28T06:11:14.605Z,101340.00
2022-10-28T06:13:48.069Z,101349.60
2022-10-28T06:19:34.191Z,101351.00
2022-10-28T06:22:40.319Z,101343.80
2022-10-28T06:26:21.024Z,101342.80
2022-10-28T06:28:58.561Z,101344.60
2022-10-28T06:31:39.333Z,101334.60
2022-10-28T06:34:31.026Z,101335.60
2022-10-28T06:37:19.357Z,101337.20
2022-10-28T06:39:57.071Z,101341.00
2022-10-28T06:42:29.550Z,101349.20
2022-10-28T06:45:11.460Z,101354.60
2022-10-28T06:47:49.419Z,101360.20
2022-10-28T06:50:21.231Z,101358.00
2022-10-28T06:53:01.057Z,101366.80
2022-10-28T06:55:34.022Z,101360.00
2022-10-28T06:58:12.745Z,101371.00
2022-10-28T07:00:45.037Z,101367.20
2022-10-28T07:03:28.344Z,101363.20
2022-10-28T07:06:26.750Z,101370.40
2022-10-28T07:09:17.478Z,101369.00
2022-10-28T07:12:25.607Z,101377.80
2022-10-28T07:15:29.491Z,101370.20
2022-10-28T07:18:25.223Z,101374.20
2022-10-28T07:21:30.336Z,101371.00
2022-10-28T07:24:19.308Z,101365.00
2022-10-28T07:26:57.032Z,101373.20
2022-10-28T07:29:41.851Z,101368.40
2022-10-28T07:32:29.541Z,101364.00
2022-10-28T07:35:36.933Z,101363.20
2022-10-28T07:38:47.838Z,101365.20
2022-10-28T07:41:20.971Z,101368.00
2022-10-28T07:43:53.699Z,101364.20
2022-10-28T07:46:39.460Z,101367.60
2022-10-28T07:49:46.127Z,101366.40
2022-10-28T07:52:19.429Z,101365.80
2022-10-28T07:54:51.899Z,101364.00
2022-10-28T07:57:25.080Z,101355.20
2022-10-28T07:59:56.648Z,101350.80
2022-10-28T08:02:27.918Z,101354.40
2022-10-28T08:05:04.078Z,101353.20
2022-10-28T08:07:38.509Z,101356.00
2022-10-28T08:10:14.245Z,101352.00
2022-10-28T08:12:51.367Z,101350.00
2022-10-28T08:15:24.403Z,101341.00
2022-10-28T08:17:56.611Z,101346.60
2022-10-28T08:20:29.064Z,101350.40
2022-10-28T08:23:15.878Z,101352.80
2022-10-28T08:26:03.065Z,101339.80
2022-10-28T08:28:34.729Z,101341.00
2022-10-28T08:31:21.137Z,101345.20
2022-10-28T08:34:04.519Z,101337.40
2022-10-28T08:37:28.437Z,101343.20
2022-10-28T08:40:21.625Z,101341.60
2022-10-28T08:43:52.929Z,101341.00
2022-10-28T08:52:23.618Z,101339.60
2022-10-28T09:07:17.847Z,101332.60
2022-10-28T09:10:04.923Z,101330.60
2022-10-28T09:13:28.300Z,101338.80
2022-10-28T09:18:08.544Z,101344.60
2022-10-28T09:20:17.882Z,101339.40
2022-10-28T09:26:51.053Z,101335.40
2022-10-28T09:33:57.649Z,101339.40
2022-10-28T09:36:40.201Z,101337.40
2022-10-28T09:39:23.980Z,101335.80
2022-10-28T09:41:58.843Z,101340.40
2022-10-28T09:47:33.679Z,101330.80
2022-10-28T09:50:08.166Z,101327.80
2022-10-28T09:52:43.428Z,101330.40
2022-10-28T09:55:23.889Z,101326.20
2022-10-28T10:00:45.340Z,101325.20
2022-10-28T10:03:18.584Z,101326.40
2022-10-28T10:05:53.854Z,101322.20
2022-10-28T10:08:26.969Z,101321.00
2022-10-28T10:11:01.201Z,101327.00
2022-10-28T10:13:38.364Z,101324.60
2022-10-28T10:16:15.415Z,101321.00
2022-10-28T10:24:36.446Z,101313.80
2022-10-28T10:27:14.819Z,101322.20
2022-10-28T10:29:47.437Z,101322.00
2022-10-28T10:32:21.798Z,101313.20
2022-10-28T10:35:01.212Z,101316.20
2022-10-28T10:37:33.798Z,101308.60
2022-10-28T10:43:30.807Z,101301.60
2022-10-28T10:46:08.978Z,101295.60
2022-10-28T10:48:40.166Z,101299.60
2022-10-28T10:51:27.039Z,101291.00
2022-10-28T10:54:00.627Z,101284.20
2022-10-28T10:56:33.127Z,101285.20
2022-10-28T10:59:24.063Z,101286.60
2022-10-28T11:01:55.154Z,101292.00
2022-10-28T11:07:16.936Z,101286.80
2022-10-28T11:09:49.862Z,101278.40
2022-10-28T11:12:28.254Z,101274.00
2022-10-28T11:17:58.519Z,101260.80
2022-10-28T11:20:35.924Z,101264.00
2022-10-28T11:23:18.877Z,101258.20
2022-10-28T11:25:53.799Z,101255.40
2022-10-28T11:28:58.777Z,101255.00
2022-10-28T11:32:06.094Z,101260.60
2022-10-28T11:41:21.162Z,101252.80
2022-10-28T11:43:55.375Z,101250.60
2022-10-28T11:46:39.512Z,101252.80
2022-10-28T11:53:04.920Z,101253.00
2022-10-28T11:55:38.453Z,101250.00
2022-10-28T12:01:18.893Z,101234.60
2022-10-28T12:04:07.840Z,101236.60
2022-10-28T12:07:09.240Z,101238.00
2022-10-28T12:12:44.789Z,101227.60
2022-10-28T12:18:17.560Z,101232.00
2022-10-28T12:20:53.345Z,101231.60
2022-10-28T12:23:25.357Z,101236.60
2022-10-28T12:25:57.807Z,101226.20
2022-10-28T12:28:32.826Z,101230.20
2022-10-28T12:33:57.012Z,101225.40
2022-10-28T12:36:34.686Z,101219.00
2022-10-28T12:39:07.428Z,101217.80
2022-10-28T12:41:56.324Z,101216.60
2022-10-28T12:50:17.687Z,101212.20
2022-10-28T12:52:54.834Z,101214.00
2022-10-28T12:55:33.945Z,101205.80
2022-10-28T12:58:10.871Z,101198.80
2022-10-28T13:00:44.240Z,101203.00
2022-10-28T13:03:18.527Z,101193.60
2022-10-28T13:05:54.420Z,101194.80
2022-10-28T13:08:49.428Z,101188.80
2022-10-28T13:11:58.883Z,101194.40
2022-10-28T13:18:24.173Z,101193.20
2022-10-28T13:21:00.443Z,101189.40
2022-10-28T13:23:33.389Z,101193.20
2022-10-28T13:26:17.262Z,101191.20
2022-10-28T13:28:50.218Z,101197.60
2022-10-28T13:31:20.849Z,101189.80
2022-10-28T13:33:55.370Z,101191.20
2022-10-28T13:36:30.938Z,101195.40
2022-10-28T13:39:03.667Z,101204.00
2022-10-28T13:41:37.216Z,101204.20
2022-10-28T13:44:33.143Z,101212.40
2022-10-28T13:47:28.558Z,101218.40
2022-10-28T13:50:37.437Z,101216.00
2022-10-28T13:53:55.247Z,101218.20
2022-10-28T13:56:51.905Z,101230.20
2022-10-28T13:59:39.642Z,101242.20
2022-10-28T14:02:35.282Z,101260.80
2022-10-28T14:05:09.085Z,101269.60
2022-10-28T14:07:51.190Z,101278.60
2022-10-28T14:10:29.037Z,101277.60
2022-10-28T14:13:05.720Z,101281.40
2022-10-28T14:15:37.492Z,101287.80
2022-10-28T14:24:32.650Z,101275.00
2022-10-28T14:27:45.333Z,101273.60
2022-10-28T14:30:25.794Z,101270.20
2022-10-28T14:33:29.666Z,101266.40
2022-10-28T14:36:26.046Z,101254.60
2022-10-28T14:39:33.766Z,101243.40
2022-10-28T14:42:23.291Z,101240.80
2022-10-28T14:45:17.276Z,101224.00
2022-10-28T14:48:12.190Z,101202.20
2022-10-28T14:50:46.778Z,101194.20
2022-10-28T14:53:26.338Z,101195.20
2022-10-28T14:56:03.703Z,101192.60
2022-10-28T14:58:38.865Z,101192.20
2022-10-28T15:01:23.586Z,101196.20
2022-10-28T15:04:01.058Z,101188.20
2022-10-28T15:06:42.205Z,101185.20
2022-10-28T15:09:23.516Z,101186.80
2022-10-28T15:17:42.546Z,101173.00
2022-10-28T15:20:28.441Z,101174.00
2022-10-28T15:23:25.610Z,101168.20
2022-10-28T15:26:12.663Z,101161.80
2022-10-28T15:28:45.542Z,101159.40
2022-10-28T15:31:20.567Z,101153.60
2022-10-28T15:33:51.859Z,101151.00
2022-10-28T15:36:26.613Z,101131.20
2022-10-28T15:39:21.501Z,101142.40
2022-10-28T15:41:57.484Z,101134.80
2022-10-28T15:44:43.022Z,101123.60
2022-10-28T15:47:34.196Z,101116.80
2022-10-28T15:53:46.194Z,101107.20
2022-10-28T15:56:23.183Z,101110.20
2022-10-28T15:59:40.630Z,101112.00
2022-10-28T16:05:49.627Z,101104.60
2022-10-28T16:08:35.252Z,101111.20
2022-10-28T16:11:20.321Z,101111.60
2022-10-28T16:13:55.254Z,101096.40
2022-10-28T16:16:43.573Z,101095.80
2022-10-28T16:20:09.697Z,101104.00
2022-10-28T16:26:16.626Z,101112.80
2022-10-28T16:28:52.485Z,101112.00
2022-10-28T16:31:27.927Z,101113.20
2022-10-28T16:34:02.746Z,101105.60
2022-10-28T16:36:47.620Z,101107.40
2022-10-28T16:39:18.762Z,101102.80
2022-10-28T16:44:46.531Z,101083.00
2022-10-28T16:47:23.031Z,101087.00
2022-10-28T16:52:41.525Z,101078.40
2022-10-28T16:55:16.216Z,101086.40
2022-10-28T16:57:58.997Z,101105.40
2022-10-28T17:00:34.426Z,101104.80
2022-10-28T17:09:03.404Z,101105.40
2022-10-28T17:11:35.236Z,101100.00
2022-10-28T17:14:06.336Z,101102.80
2022-10-28T17:16:46.170Z,101108.00
2022-10-28T17:22:11.598Z,101102.40
2022-10-28T17:24:57.738Z,101108.60
2022-10-28T17:27:33.016Z,101106.60
2022-10-28T17:30:09.600Z,101105.00
2022-10-28T17:35:50.350Z,101112.00
2022-10-28T17:38:27.864Z,101113.20
2022-10-28T17:41:02.118Z,101120.80
2022-10-28T17:43:42.088Z,101119.40
2022-10-28T17:49:20.636Z,101119.40
2022-10-28T17:52:23.988Z,101119.20
2022-10-28T17:55:25.500Z,101115.00
2022-10-28T17:58:04.007Z,101104.80
2022-10-28T18:00:44.357Z,101102.00
2022-10-28T18:03:33.974Z,101108.40
2022-10-28T18:06:15.369Z,101100.40
2022-10-28T18:08:47.460Z,101083.00
2022-10-28T18:11:33.817Z,101087.60
2022-10-28T18:14:15.959Z,101080.20
2022-10-28T18:17:48.891Z,101080.40
2022-10-28T18:20:20.321Z,101084.20
2022-10-28T18:22:57.599Z,101071.00
2022-10-28T18:25:33.503Z,101074.00
2022-10-28T18:28:26.898Z,101069.40
2022-10-28T18:34:27.520Z,101055.60
2022-10-28T18:37:14.050Z,101059.60
2022-10-28T18:42:54.378Z,101053.60
2022-10-28T18:51:30.798Z,101058.40
2022-10-28T18:54:25.232Z,101060.20
2022-10-28T18:57:08.246Z,101059.40
2022-10-28T19:00:17.410Z,101061.20
2022-10-28T19:03:23.858Z,101052.20
2022-10-28T19:06:18.096Z,101048.40
2022-10-28T19:09:11.048Z,101026.00
2022-10-28T19:11:44.953Z,101012.60
2022-10-28T19:14:20.179Z,101019.40
2022-10-28T19:16:57.845Z,101022.60
2022-10-28T19:19:28.861Z,101010.40
2022-10-28T19:22:00.718Z,101012.60
2022-10-28T19:24:32.912Z,101010.60
2022-10-28T19:31:43.878Z,101008.80
2022-10-28T19:40:07.886Z,101014.20
2022-10-28T19:48:47.593Z,101023.20
2022-10-28T20:00:50.380Z,101027.80
2022-10-28T22:32:03.694Z,100958.80
2022-10-28T22:43:49.650Z,100944.00
2022-10-28T22:47:42.772Z,100945.00
2022-10-28T23:22:27.840Z,100913.60
2022-10-28T23:37:41.159Z,100902.60
